sensor_id;sensor_type;location;lat;lon;timestamp;pressure;altitude;pressure_sealevel;temperature;humidity
74334;BME280;62753;40.394;-80.022;2022-09-16T00:00:51;97915.29;;;26.46;24.35
74334;BME280;62753;40.394;-80.022;2022-09-16T00:03:17;97915.69;;;26.44;23.72
74334;BME280;62753;40.394;-80.022;2022-09-16T00:05:41;97918.01;;;26.44;23.73
74334;BME280;62753;40.394;-80.022;2022-09-16T00:08:07;97920.30;;;26.48;23.98
74334;BME280;62753;40.394;-80.022;2022-09-16T00:10:31;97921.57;;;27.04;23.68
74334;BME280;62753;40.394;-80.022;2022-09-16T00:12:56;97925.13;;;26.04;23.20
74334;BME280;62753;40.394;-80.022;2022-09-16T00:15:21;97925.68;;;26.75;23.17
74334;BME280;62753;40.394;-80.022;2022-09-16T00:17:47;97929.26;;;26.36;23.55
74334;BME280;62753;40.394;-80.022;2022-09-16T00:20:12;97927.33;;;26.71;22.67
74334;BME280;62753;40.394;-80.022;2022-09-16T00:22:37;97927.81;;;26.66;23.07
74334;BME280;62753;40.394;-80.022;2022-09-16T00:25:02;97929.55;;;26.37;22.46
74334;BME280;62753;40.394;-80.022;2022-09-16T00:27:27;97933.02;;;26.51;22.52
74334;BME280;62753;40.394;-80.022;2022-09-16T00:29:52;97934.77;;;26.46;22.54
74334;BME280;62753;40.394;-80.022;2022-09-16T00:32:19;97936.00;;;26.28;22.93
74334;BME280;62753;40.394;-80.022;2022-09-16T00:34:43;97938.66;;;26.16;23.29
74334;BME280;62753;40.394;-80.022;2022-09-16T00:37:08;97944.11;;;26.10;23.08
74334;BME280;62753;40.394;-80.022;2022-09-16T00:39:34;97944.35;;;26.61;22.89
74334;BME280;62753;40.394;-80.022;2022-09-16T00:41:59;97940.31;;;25.81;23.06
74334;BME280;62753;40.394;-80.022;2022-09-16T00:46:49;97941.54;;;26.32;23.13
74334;BME280;62753;40.394;-80.022;2022-09-16T00:49:17;97947.23;;;26.29;22.97
74334;BME280;62753;40.394;-80.022;2022-09-16T00:51:41;97954.29;;;25.88;23.27
74334;BME280;62753;40.394;-80.022;2022-09-16T00:54:07;97956.44;;;25.90;23.27
74334;BME280;62753;40.394;-80.022;2022-09-16T00:56:35;97959.45;;;25.22;23.68
74334;BME280;62753;40.394;-80.022;2022-09-16T00:58:59;97962.43;;;25.76;23.73
74334;BME280;62753;40.394;-80.022;2022-09-16T01:01:21;97963.48;;;26.00;24.08
74334;BME280;62753;40.394;-80.022;2022-09-16T01:03:50;97966.21;;;26.27;23.90
74334;BME280;62753;40.394;-80.022;2022-09-16T01:06:13;97972.12;;;25.39;24.30
74334;BME280;62753;40.394;-80.022;2022-09-16T01:08:37;97976.10;;;25.60;24.34
74334;BME280;62753;40.394;-80.022;2022-09-16T01:11:02;97975.38;;;25.20;24.36
74334;BME280;62753;40.394;-80.022;2022-09-16T01:13:27;97973.13;;;25.63;24.27
74334;BME280;62753;40.394;-80.022;2022-09-16T01:15:57;97970.91;;;26.14;23.92
74334;BME280;62753;40.394;-80.022;2022-09-16T01:18:24;97972.17;;;25.69;24.20
74334;BME280;62753;40.394;-80.022;2022-09-16T01:21:02;97974.62;;;25.96;24.05
74334;BME280;62753;40.394;-80.022;2022-09-16T01:23:30;97975.80;;;26.20;23.78
74334;BME280;62753;40.394;-80.022;2022-09-16T01:25:44;97973.78;;;26.18;24.11
74334;BME280;62753;40.394;-80.022;2022-09-16T01:28:12;97968.04;;;25.64;23.97
74334;BME280;62753;40.394;-80.022;2022-09-16T01:30:39;97970.07;;;25.93;23.97
74334;BME280;62753;40.394;-80.022;2022-09-16T01:32:59;97969.55;;;25.57;24.89
74334;BME280;62753;40.394;-80.022;2022-09-16T01:35:19;97969.56;;;25.32;25.14
74334;BME280;62753;40.394;-80.022;2022-09-16T01:37:45;97968.21;;;25.50;24.76
74334;BME280;62753;40.394;-80.022;2022-09-16T01:40:10;97969.60;;;24.89;24.46
74334;BME280;62753;40.394;-80.022;2022-09-16T01:42:36;97969.52;;;25.66;24.41
74334;BME280;62753;40.394;-80.022;2022-09-16T01:45:01;97970.57;;;25.67;24.66
74334;BME280;62753;40.394;-80.022;2022-09-16T01:47:26;97974.23;;;24.98;24.85
74334;BME280;62753;40.394;-80.022;2022-09-16T01:49:53;97979.59;;;25.32;24.51
74334;BME280;62753;40.394;-80.022;2022-09-16T01:52:19;97977.09;;;25.12;24.48
74334;BME280;62753;40.394;-80.022;2022-09-16T01:54:40;97974.29;;;24.86;24.73
74334;BME280;62753;40.394;-80.022;2022-09-16T01:57:05;97971.19;;;25.82;24.50
74334;BME280;62753;40.394;-80.022;2022-09-16T01:59:33;97970.94;;;25.82;24.46
74334;BME280;62753;40.394;-80.022;2022-09-16T02:01:55;97970.09;;;25.06;25.25
74334;BME280;62753;40.394;-80.022;2022-09-16T02:04:20;97968.98;;;25.41;25.11
74334;BME280;62753;40.394;-80.022;2022-09-16T02:06:43;97964.40;;;25.19;25.37
74334;BME280;62753;40.394;-80.022;2022-09-16T02:09:10;97962.70;;;24.95;25.79
74334;BME280;62753;40.394;-80.022;2022-09-16T02:11:34;97958.83;;;24.89;25.59
74334;BME280;62753;40.394;-80.022;2022-09-16T02:14:02;97959.65;;;25.23;26.12
74334;BME280;62753;40.394;-80.022;2022-09-16T02:16:28;97956.08;;;24.87;25.81
74334;BME280;62753;40.394;-80.022;2022-09-16T02:18:52;97951.20;;;24.55;25.95
74334;BME280;62753;40.394;-80.022;2022-09-16T02:21:15;97953.11;;;24.70;26.12
74334;BME280;62753;40.394;-80.022;2022-09-16T02:23:41;97956.03;;;24.43;25.95
74334;BME280;62753;40.394;-80.022;2022-09-16T02:26:07;97954.43;;;24.29;26.01
74334;BME280;62753;40.394;-80.022;2022-09-16T02:28:32;97952.19;;;25.11;25.91
74334;BME280;62753;40.394;-80.022;2022-09-16T02:30:56;97950.66;;;25.42;26.22
74334;BME280;62753;40.394;-80.022;2022-09-16T02:33:22;97953.32;;;24.52;26.49
74334;BME280;62753;40.394;-80.022;2022-09-16T02:35:48;97957.03;;;24.62;27.15
74334;BME280;62753;40.394;-80.022;2022-09-16T02:38:13;97959.23;;;24.16;27.71
74334;BME280;62753;40.394;-80.022;2022-09-16T02:40:42;97961.92;;;24.24;28.34
74334;BME280;62753;40.394;-80.022;2022-09-16T02:43:01;97961.25;;;24.23;28.43
74334;BME280;62753;40.394;-80.022;2022-09-16T02:45:35;97962.70;;;24.25;28.39
74334;BME280;62753;40.394;-80.022;2022-09-16T02:47:57;97966.56;;;24.49;28.39
74334;BME280;62753;40.394;-80.022;2022-09-16T02:50:23;97966.04;;;23.96;27.83
74334;BME280;62753;40.394;-80.022;2022-09-16T02:52:47;97967.09;;;24.16;27.59
74334;BME280;62753;40.394;-80.022;2022-09-16T02:55:13;97962.57;;;24.28;27.78
74334;BME280;62753;40.394;-80.022;2022-09-16T02:57:33;97965.43;;;24.34;27.14
74334;BME280;62753;40.394;-80.022;2022-09-16T02:59:57;97966.46;;;24.33;27.42
74334;BME280;62753;40.394;-80.022;2022-09-16T03:02:23;97962.32;;;23.97;27.45
74334;BME280;62753;40.394;-80.022;2022-09-16T03:04:48;97962.82;;;23.96;27.29
74334;BME280;62753;40.394;-80.022;2022-09-16T03:07:14;97966.16;;;24.36;27.40
74334;BME280;62753;40.394;-80.022;2022-09-16T03:09:42;97962.09;;;23.72;27.98
74334;BME280;62753;40.394;-80.022;2022-09-16T03:12:19;97961.65;;;24.08;28.25
74334;BME280;62753;40.394;-80.022;2022-09-16T03:14:41;97963.34;;;23.89;28.46
74334;BME280;62753;40.394;-80.022;2022-09-16T03:17:01;97968.56;;;23.89;28.82
74334;BME280;62753;40.394;-80.022;2022-09-16T03:19:25;97973.71;;;24.00;29.64
74334;BME280;62753;40.394;-80.022;2022-09-16T03:21:50;97973.11;;;23.79;29.75
74334;BME280;62753;40.394;-80.022;2022-09-16T03:24:17;97974.54;;;23.99;30.30
74334;BME280;62753;40.394;-80.022;2022-09-16T03:26:43;97972.77;;;24.11;30.02
74334;BME280;62753;40.394;-80.022;2022-09-16T03:29:10;97973.41;;;23.75;30.02
74334;BME280;62753;40.394;-80.022;2022-09-16T03:31:30;97971.53;;;23.77;29.54
74334;BME280;62753;40.394;-80.022;2022-09-16T03:33:59;97968.36;;;23.52;28.93
74334;BME280;62753;40.394;-80.022;2022-09-16T03:36:21;97969.70;;;23.76;28.45
74334;BME280;62753;40.394;-80.022;2022-09-16T03:38:43;97975.54;;;23.59;28.90
74334;BME280;62753;40.394;-80.022;2022-09-16T03:41:09;97971.45;;;23.50;29.11
74334;BME280;62753;40.394;-80.022;2022-09-16T03:43:33;97974.65;;;23.46;29.78
74334;BME280;62753;40.394;-80.022;2022-09-16T03:45:59;97977.15;;;23.70;29.54
74334;BME280;62753;40.394;-80.022;2022-09-16T03:48:24;97980.48;;;23.87;30.05
74334;BME280;62753;40.394;-80.022;2022-09-16T03:50:49;97981.67;;;23.51;30.18
74334;BME280;62753;40.394;-80.022;2022-09-16T03:53:15;97978.26;;;23.49;30.22
74334;BME280;62753;40.394;-80.022;2022-09-16T03:55:40;97978.35;;;23.37;30.09
74334;BME280;62753;40.394;-80.022;2022-09-16T03:58:06;97978.22;;;23.06;30.00
74334;BME280;62753;40.394;-80.022;2022-09-16T04:00:31;97977.80;;;22.96;28.76
74334;BME280;62753;40.394;-80.022;2022-09-16T04:02:58;97978.49;;;23.58;28.26
74334;BME280;62753;40.394;-80.022;2022-09-16T04:05:22;97983.17;;;23.34;28.36
74334;BME280;62753;40.394;-80.022;2022-09-16T04:07:48;97986.60;;;23.74;28.22
74334;BME280;62753;40.394;-80.022;2022-09-16T04:10:13;97990.14;;;23.39;28.23
74334;BME280;62753;40.394;-80.022;2022-09-16T04:12:39;97989.59;;;23.27;28.72
74334;BME280;62753;40.394;-80.022;2022-09-16T04:15:05;97991.02;;;23.34;28.55
74334;BME280;62753;40.394;-80.022;2022-09-16T04:17:31;97989.02;;;23.39;28.88
74334;BME280;62753;40.394;-80.022;2022-09-16T04:19:54;97987.26;;;23.97;29.02
74334;BME280;62753;40.394;-80.022;2022-09-16T04:22:21;97987.59;;;23.23;29.28
74334;BME280;62753;40.394;-80.022;2022-09-16T04:24:45;97984.95;;;22.66;29.68
74334;BME280;62753;40.394;-80.022;2022-09-16T04:27:11;97991.76;;;23.23;29.39
74334;BME280;62753;40.394;-80.022;2022-09-16T04:29:36;97993.40;;;23.00;29.61
74334;BME280;62753;40.394;-80.022;2022-09-16T04:32:02;97995.34;;;23.27;29.23
74334;BME280;62753;40.394;-80.022;2022-09-16T04:34:27;97992.30;;;22.49;28.51
74334;BME280;62753;40.394;-80.022;2022-09-16T04:36:52;97989.34;;;23.54;28.71
74334;BME280;62753;40.394;-80.022;2022-09-16T04:39:18;97988.00;;;23.41;28.77
74334;BME280;62753;40.394;-80.022;2022-09-16T04:41:42;97987.34;;;23.56;28.93
74334;BME280;62753;40.394;-80.022;2022-09-16T04:44:09;97994.75;;;22.93;29.11
74334;BME280;62753;40.394;-80.022;2022-09-16T04:46:33;97991.64;;;23.11;28.89
74334;BME280;62753;40.394;-80.022;2022-09-16T04:48:59;97992.82;;;23.39;28.76
74334;BME280;62753;40.394;-80.022;2022-09-16T04:51:25;98000.41;;;22.96;28.85
74334;BME280;62753;40.394;-80.022;2022-09-16T04:53:49;98000.41;;;23.19;29.16
74334;BME280;62753;40.394;-80.022;2022-09-16T04:56:18;97999.51;;;22.83;28.95
74334;BME280;62753;40.394;-80.022;2022-09-16T04:58:41;97999.03;;;23.09;28.97
74334;BME280;62753;40.394;-80.022;2022-09-16T05:01:06;97995.96;;;22.58;28.98
74334;BME280;62753;40.394;-80.022;2022-09-16T05:03:31;97993.05;;;22.56;28.79
74334;BME280;62753;40.394;-80.022;2022-09-16T05:06:05;97993.13;;;22.80;28.02
74334;BME280;62753;40.394;-80.022;2022-09-16T05:08:21;97992.30;;;22.79;28.13
74334;BME280;62753;40.394;-80.022;2022-09-16T05:10:47;97992.71;;;23.03;27.60
74334;BME280;62753;40.394;-80.022;2022-09-16T05:13:12;97995.07;;;22.90;27.92
74334;BME280;62753;40.394;-80.022;2022-09-16T05:15:37;97989.31;;;23.46;28.32
74334;BME280;62753;40.394;-80.022;2022-09-16T05:18:02;97995.16;;;23.06;28.54
74334;BME280;62753;40.394;-80.022;2022-09-16T05:20:28;97994.64;;;22.76;28.34
74334;BME280;62753;40.394;-80.022;2022-09-16T05:22:54;97995.48;;;23.49;27.94
74334;BME280;62753;40.394;-80.022;2022-09-16T05:25:19;97993.12;;;23.68;28.02
74334;BME280;62753;40.394;-80.022;2022-09-16T05:27:43;97992.27;;;23.52;28.20
74334;BME280;62753;40.394;-80.022;2022-09-16T05:30:10;97987.28;;;22.72;28.49
74334;BME280;62753;40.394;-80.022;2022-09-16T05:32:34;97986.77;;;23.33;28.21
74334;BME280;62753;40.394;-80.022;2022-09-16T05:35:00;97987.03;;;23.17;28.49
74334;BME280;62753;40.394;-80.022;2022-09-16T05:37:24;97986.67;;;22.82;28.25
74334;BME280;62753;40.394;-80.022;2022-09-16T05:39:50;97986.93;;;23.18;28.24
74334;BME280;62753;40.394;-80.022;2022-09-16T05:42:15;97986.05;;;22.85;28.86
74334;BME280;62753;40.394;-80.022;2022-09-16T05:44:40;97988.88;;;22.59;28.27
74334;BME280;62753;40.394;-80.022;2022-09-16T05:47:06;97984.52;;;23.16;28.36
74334;BME280;62753;40.394;-80.022;2022-09-16T05:49:31;97981.29;;;23.42;28.65
74334;BME280;62753;40.394;-80.022;2022-09-16T05:51:56;97987.09;;;23.49;28.97
74334;BME280;62753;40.394;-80.022;2022-09-16T05:54:21;97990.00;;;22.43;29.65
74334;BME280;62753;40.394;-80.022;2022-09-16T05:56:47;97992.55;;;22.82;30.07
74334;BME280;62753;40.394;-80.022;2022-09-16T05:59:14;97997.15;;;22.65;29.67
74334;BME280;62753;40.394;-80.022;2022-09-16T06:01:37;97996.90;;;22.24;29.70
74334;BME280;62753;40.394;-80.022;2022-09-16T06:04:04;97996.89;;;22.64;28.95
74334;BME280;62753;40.394;-80.022;2022-09-16T06:06:30;97999.65;;;23.21;29.64
74334;BME280;62753;40.394;-80.022;2022-09-16T06:08:55;97998.95;;;23.33;29.69
74334;BME280;62753;40.394;-80.022;2022-09-16T06:11:20;97997.59;;;22.57;29.55
74334;BME280;62753;40.394;-80.022;2022-09-16T06:13:44;97999.60;;;22.80;29.62
74334;BME280;62753;40.394;-80.022;2022-09-16T06:16:11;98003.88;;;22.08;29.90
74334;BME280;62753;40.394;-80.022;2022-09-16T06:18:36;98004.95;;;22.54;30.07
74334;BME280;62753;40.394;-80.022;2022-09-16T06:21:05;98000.13;;;22.14;29.84
74334;BME280;62753;40.394;-80.022;2022-09-16T06:23:27;97997.31;;;22.10;30.21
74334;BME280;62753;40.394;-80.022;2022-09-16T06:25:58;97995.30;;;22.08;30.38
74334;BME280;62753;40.394;-80.022;2022-09-16T06:28:17;97995.66;;;22.59;30.32
74334;BME280;62753;40.394;-80.022;2022-09-16T06:30:43;97993.01;;;22.66;30.00
74334;BME280;62753;40.394;-80.022;2022-09-16T06:33:08;97996.15;;;22.10;30.31
74334;BME280;62753;40.394;-80.022;2022-09-16T06:35:34;97995.73;;;22.25;30.83
74334;BME280;62753;40.394;-80.022;2022-09-16T06:37:58;97999.28;;;22.40;30.79
74334;BME280;62753;40.394;-80.022;2022-09-16T06:40:24;97996.55;;;21.86;30.80
74334;BME280;62753;40.394;-80.022;2022-09-16T06:42:52;97990.78;;;22.64;30.73
74334;BME280;62753;40.394;-80.022;2022-09-16T06:45:15;97990.89;;;22.75;31.06
74334;BME280;62753;40.394;-80.022;2022-09-16T06:47:42;97992.61;;;22.66;31.35
74334;BME280;62753;40.394;-80.022;2022-09-16T06:50:08;97993.33;;;22.06;31.29
74334;BME280;62753;40.394;-80.022;2022-09-16T06:52:33;97991.77;;;22.27;30.96
74334;BME280;62753;40.394;-80.022;2022-09-16T06:54:58;97990.94;;;22.16;30.85
74334;BME280;62753;40.394;-80.022;2022-09-16T06:57:23;97990.10;;;22.07;31.08
74334;BME280;62753;40.394;-80.022;2022-09-16T06:59:49;97987.93;;;22.36;31.09
74334;BME280;62753;40.394;-80.022;2022-09-16T07:02:14;97984.50;;;21.70;31.50
74334;BME280;62753;40.394;-80.022;2022-09-16T07:04:39;97981.74;;;22.11;31.20
74334;BME280;62753;40.394;-80.022;2022-09-16T07:07:04;97981.48;;;21.90;31.54
74334;BME280;62753;40.394;-80.022;2022-09-16T07:09:30;97979.80;;;22.33;31.61
74334;BME280;62753;40.394;-80.022;2022-09-16T07:11:56;97980.78;;;22.21;31.57
74334;BME280;62753;40.394;-80.022;2022-09-16T07:14:21;97977.48;;;22.19;31.13
74334;BME280;62753;40.394;-80.022;2022-09-16T07:16:46;97974.93;;;22.13;31.60
74334;BME280;62753;40.394;-80.022;2022-09-16T07:19:11;97973.15;;;22.66;32.01
74334;BME280;62753;40.394;-80.022;2022-09-16T07:21:36;97972.31;;;21.99;32.34
74334;BME280;62753;40.394;-80.022;2022-09-16T07:24:03;97973.99;;;21.47;32.43
74334;BME280;62753;40.394;-80.022;2022-09-16T07:26:28;97972.05;;;21.63;32.94
74334;BME280;62753;40.394;-80.022;2022-09-16T07:28:53;97970.65;;;22.00;32.84
74334;BME280;62753;40.394;-80.022;2022-09-16T07:31:20;97965.92;;;21.72;33.05
74334;BME280;62753;40.394;-80.022;2022-09-16T07:33:47;97968.01;;;21.58;32.68
74334;BME280;62753;40.394;-80.022;2022-09-16T07:36:11;97964.69;;;22.00;32.70
74334;BME280;62753;40.394;-80.022;2022-09-16T07:38:34;97964.79;;;22.00;32.99
74334;BME280;62753;40.394;-80.022;2022-09-16T07:41:04;97964.15;;;21.97;32.77
74334;BME280;62753;40.394;-80.022;2022-09-16T07:43:25;97963.08;;;21.71;32.75
74334;BME280;62753;40.394;-80.022;2022-09-16T07:45:55;97963.66;;;22.03;32.63
74334;BME280;62753;40.394;-80.022;2022-09-16T07:48:17;97962.26;;;21.99;32.06
74334;BME280;62753;40.394;-80.022;2022-09-16T07:50:42;97960.71;;;22.15;31.79
74334;BME280;62753;40.394;-80.022;2022-09-16T07:53:07;97957.29;;;21.87;32.00
74334;BME280;62753;40.394;-80.022;2022-09-16T07:55:34;97957.86;;;21.91;32.09
74334;BME280;62753;40.394;-80.022;2022-09-16T07:57:58;97955.44;;;22.14;32.14
74334;BME280;62753;40.394;-80.022;2022-09-16T08:00:23;97954.59;;;21.82;31.46
74334;BME280;62753;40.394;-80.022;2022-09-16T08:02:49;97951.95;;;21.40;31.91
74334;BME280;62753;40.394;-80.022;2022-09-16T08:05:14;97956.77;;;21.81;32.08
74334;BME280;62753;40.394;-80.022;2022-09-16T08:07:39;97957.53;;;21.47;32.21
74334;BME280;62753;40.394;-80.022;2022-09-16T08:10:05;97954.91;;;21.93;32.24
74334;BME280;62753;40.394;-80.022;2022-09-16T08:12:30;97957.36;;;21.64;32.37
74334;BME280;62753;40.394;-80.022;2022-09-16T08:14:55;97957.64;;;22.19;32.36
74334;BME280;62753;40.394;-80.022;2022-09-16T08:17:21;97955.46;;;21.97;32.51
74334;BME280;62753;40.394;-80.022;2022-09-16T08:19:45;97950.10;;;21.98;32.92
74334;BME280;62753;40.394;-80.022;2022-09-16T08:22:11;97945.12;;;21.91;32.98
74334;BME280;62753;40.394;-80.022;2022-09-16T08:24:36;97941.30;;;21.68;33.09
74334;BME280;62753;40.394;-80.022;2022-09-16T08:27:01;97935.49;;;21.71;33.47
74334;BME280;62753;40.394;-80.022;2022-09-16T08:29:27;97940.15;;;22.09;33.11
74334;BME280;62753;40.394;-80.022;2022-09-16T08:31:53;97933.32;;;21.83;33.40
74334;BME280;62753;40.394;-80.022;2022-09-16T08:34:19;97929.72;;;21.46;34.36
74334;BME280;62753;40.394;-80.022;2022-09-16T08:36:44;97936.31;;;21.67;33.53
74334;BME280;62753;40.394;-80.022;2022-09-16T08:39:09;97936.24;;;21.86;33.54
74334;BME280;62753;40.394;-80.022;2022-09-16T08:41:47;97933.23;;;22.12;33.92
74334;BME280;62753;40.394;-80.022;2022-09-16T08:44:09;97933.65;;;21.59;34.37
74334;BME280;62753;40.394;-80.022;2022-09-16T08:46:30;97933.34;;;21.29;34.50
74334;BME280;62753;40.394;-80.022;2022-09-16T08:48:55;97930.46;;;21.25;34.70
74334;BME280;62753;40.394;-80.022;2022-09-16T08:51:19;97928.95;;;21.59;34.69
74334;BME280;62753;40.394;-80.022;2022-09-16T08:53:44;97927.01;;;21.08;35.09
74334;BME280;62753;40.394;-80.022;2022-09-16T08:56:10;97923.98;;;20.62;35.20
74334;BME280;62753;40.394;-80.022;2022-09-16T08:58:38;97923.98;;;20.93;35.23
74334;BME280;62753;40.394;-80.022;2022-09-16T09:01:01;97926.65;;;20.95;35.03
74334;BME280;62753;40.394;-80.022;2022-09-16T09:03:33;97929.36;;;20.27;34.68
74334;BME280;62753;40.394;-80.022;2022-09-16T09:05:51;97931.01;;;21.11;34.49
74334;BME280;62753;40.394;-80.022;2022-09-16T09:08:25;97928.44;;;21.46;34.04
74334;BME280;62753;40.394;-80.022;2022-09-16T09:10:44;97931.12;;;21.38;34.20
74334;BME280;62753;40.394;-80.022;2022-09-16T09:13:11;97931.54;;;20.65;34.45
74334;BME280;62753;40.394;-80.022;2022-09-16T09:15:36;97930.13;;;20.86;34.07
74334;BME280;62753;40.394;-80.022;2022-09-16T09:18:06;97931.90;;;21.32;33.79
74334;BME280;62753;40.394;-80.022;2022-09-16T09:20:29;97932.21;;;21.17;33.82
74334;BME280;62753;40.394;-80.022;2022-09-16T09:22:55;97934.49;;;21.61;33.96
74334;BME280;62753;40.394;-80.022;2022-09-16T09:25:24;97934.67;;;21.22;33.97
74334;BME280;62753;40.394;-80.022;2022-09-16T09:27:44;97934.20;;;21.37;33.79
74334;BME280;62753;40.394;-80.022;2022-09-16T09:30:08;97933.74;;;20.78;34.08
74334;BME280;62753;40.394;-80.022;2022-09-16T09:32:37;97934.77;;;21.06;34.15
74334;BME280;62753;40.394;-80.022;2022-09-16T09:35:03;97935.93;;;21.09;34.21
74334;BME280;62753;40.394;-80.022;2022-09-16T09:37:30;97937.40;;;21.36;34.45
74334;BME280;62753;40.394;-80.022;2022-09-16T09:39:56;97938.78;;;21.25;34.48
74334;BME280;62753;40.394;-80.022;2022-09-16T09:42:14;97938.98;;;20.32;34.62
74334;BME280;62753;40.394;-80.022;2022-09-16T09:44:44;97941.65;;;21.20;34.48
74334;BME280;62753;40.394;-80.022;2022-09-16T09:47:07;97946.11;;;21.39;34.33
74334;BME280;62753;40.394;-80.022;2022-09-16T09:49:33;97948.26;;;20.94;34.40
74334;BME280;62753;40.394;-80.022;2022-09-16T09:51:57;97950.13;;;21.08;34.53
74334;BME280;62753;40.394;-80.022;2022-09-16T09:54:25;97951.33;;;21.42;34.65
74334;BME280;62753;40.394;-80.022;2022-09-16T09:56:44;97953.36;;;21.27;34.49
74334;BME280;62753;40.394;-80.022;2022-09-16T09:59:18;97953.70;;;20.98;34.67
74334;BME280;62753;40.394;-80.022;2022-09-16T10:01:35;97954.24;;;20.69;34.51
74334;BME280;62753;40.394;-80.022;2022-09-16T10:04:00;97956.95;;;21.66;34.43
74334;BME280;62753;40.394;-80.022;2022-09-16T10:06:28;97957.39;;;20.99;34.88
74334;BME280;62753;40.394;-80.022;2022-09-16T10:08:53;97955.26;;;21.09;34.94
74334;BME280;62753;40.394;-80.022;2022-09-16T10:11:19;97958.49;;;20.85;35.18
74334;BME280;62753;40.394;-80.022;2022-09-16T10:13:47;97957.43;;;21.04;35.21
74334;BME280;62753;40.394;-80.022;2022-09-16T10:16:12;97958.73;;;20.82;35.48
74334;BME280;62753;40.394;-80.022;2022-09-16T10:18:33;97961.43;;;20.76;35.18
74334;BME280;62753;40.394;-80.022;2022-09-16T10:21:03;97960.77;;;20.91;35.27
74334;BME280;62753;40.394;-80.022;2022-09-16T10:23:25;97962.39;;;20.64;35.35
74334;BME280;62753;40.394;-80.022;2022-09-16T10:26:04;97964.20;;;21.24;35.36
74334;BME280;62753;40.394;-80.022;2022-09-16T10:28:20;97963.55;;;20.61;35.56
74334;BME280;62753;40.394;-80.022;2022-09-16T10:30:44;97964.50;;;20.99;35.44
74334;BME280;62753;40.394;-80.022;2022-09-16T10:33:11;97969.23;;;21.24;35.48
74334;BME280;62753;40.394;-80.022;2022-09-16T10:35:33;97976.54;;;20.91;35.55
74334;BME280;62753;40.394;-80.022;2022-09-16T10:37:58;97977.90;;;20.91;35.56
74334;BME280;62753;40.394;-80.022;2022-09-16T10:40:22;97973.49;;;20.73;35.58
74334;BME280;62753;40.394;-80.022;2022-09-16T10:42:49;97977.30;;;20.97;35.38
74334;BME280;62753;40.394;-80.022;2022-09-16T10:45:15;97977.81;;;21.13;34.94
74334;BME280;62753;40.394;-80.022;2022-09-16T10:47:39;97981.09;;;20.90;35.30
74334;BME280;62753;40.394;-80.022;2022-09-16T10:50:05;97983.85;;;21.35;34.97
74334;BME280;62753;40.394;-80.022;2022-09-16T10:52:31;97990.69;;;20.95;35.33
74334;BME280;62753;40.394;-80.022;2022-09-16T10:54:55;97994.01;;;21.12;35.78
74334;BME280;62753;40.394;-80.022;2022-09-16T10:57:24;97991.87;;;20.79;35.91
74334;BME280;62753;40.394;-80.022;2022-09-16T10:59:57;97992.11;;;20.62;36.13
74334;BME280;62753;40.394;-80.022;2022-09-16T11:02:20;97995.20;;;21.12;36.14
74334;BME280;62753;40.394;-80.022;2022-09-16T11:04:46;97997.64;;;20.56;36.31
74334;BME280;62753;40.394;-80.022;2022-09-16T11:07:08;97997.73;;;21.10;36.36
74334;BME280;62753;40.394;-80.022;2022-09-16T11:09:31;97998.66;;;21.25;36.14
74334;BME280;62753;40.394;-80.022;2022-09-16T11:12:05;98000.93;;;20.51;36.40
74334;BME280;62753;40.394;-80.022;2022-09-16T11:14:28;98004.31;;;20.99;36.24
74334;BME280;62753;40.394;-80.022;2022-09-16T11:16:57;98004.23;;;20.73;36.76
74334;BME280;62753;40.394;-80.022;2022-09-16T11:19:12;98005.35;;;19.61;38.40
74334;BME280;62753;40.394;-80.022;2022-09-16T11:21:49;98011.01;;;18.98;40.49
74334;BME280;62753;40.394;-80.022;2022-09-16T11:24:10;98013.26;;;20.29;38.70
74334;BME280;62753;40.394;-80.022;2022-09-16T11:26:32;98017.17;;;20.08;37.54
74334;BME280;62753;40.394;-80.022;2022-09-16T11:29:01;98020.00;;;20.85;36.83
74334;BME280;62753;40.394;-80.022;2022-09-16T11:31:27;98020.69;;;20.41;36.95
74334;BME280;62753;40.394;-80.022;2022-09-16T11:33:48;98026.07;;;20.43;36.84
74334;BME280;62753;40.394;-80.022;2022-09-16T11:36:20;98032.21;;;20.82;37.47
74334;BME280;62753;40.394;-80.022;2022-09-16T11:38:46;98030.58;;;20.57;37.34
74334;BME280;62753;40.394;-80.022;2022-09-16T11:41:02;98032.34;;;20.74;36.70
74334;BME280;62753;40.394;-80.022;2022-09-16T11:43:39;98033.40;;;20.83;35.90
74334;BME280;62753;40.394;-80.022;2022-09-16T11:45:55;98034.16;;;21.33;35.87
74334;BME280;62753;40.394;-80.022;2022-09-16T11:48:28;98034.26;;;20.79;35.48
74334;BME280;62753;40.394;-80.022;2022-09-16T11:50:46;98035.50;;;20.87;34.86
74334;BME280;62753;40.394;-80.022;2022-09-16T11:55:40;98037.17;;;21.64;34.88
74334;BME280;62753;40.394;-80.022;2022-09-16T11:58:00;98041.05;;;21.31;35.25
74334;BME280;62753;40.394;-80.022;2022-09-16T12:00:22;98041.76;;;21.24;35.60
74334;BME280;62753;40.394;-80.022;2022-09-16T12:02:54;98039.94;;;20.94;36.01
74334;BME280;62753;40.394;-80.022;2022-09-16T12:05:17;98040.81;;;21.58;35.87
74334;BME280;62753;40.394;-80.022;2022-09-16T12:07:46;98038.45;;;21.73;35.55
74334;BME280;62753;40.394;-80.022;2022-09-16T12:10:11;98035.24;;;21.36;35.19
74334;BME280;62753;40.394;-80.022;2022-09-16T12:12:35;98037.34;;;22.54;35.08
74334;BME280;62753;40.394;-80.022;2022-09-16T12:15:00;98038.75;;;22.30;35.19
74334;BME280;62753;40.394;-80.022;2022-09-16T12:17:24;98041.08;;;21.68;35.93
74334;BME280;62753;40.394;-80.022;2022-09-16T12:19:50;98039.93;;;22.13;36.93
74334;BME280;62753;40.394;-80.022;2022-09-16T12:22:16;98043.06;;;21.05;37.98
74334;BME280;62753;40.394;-80.022;2022-09-16T12:24:42;98044.37;;;21.27;38.04
74334;BME280;62753;40.394;-80.022;2022-09-16T12:27:06;98045.04;;;21.64;38.18
74334;BME280;62753;40.394;-80.022;2022-09-16T12:29:35;98051.44;;;21.11;38.66
74334;BME280;62753;40.394;-80.022;2022-09-16T12:31:57;98052.62;;;20.93;39.03
74334;BME280;62753;40.394;-80.022;2022-09-16T12:34:21;98050.86;;;21.77;38.24